Overview Statistics Trail Chart Weather Telemetry Raw packets
 

This is the latest recevied weather packets stored in our database for station/object W0AKY-13. If no packets are shown the sender has not sent any weather packets the latest 10 day(s).

<< 78 79 80 81 82 83 84 >>
Time Temp. Humidity Pressure Rain* Wind** Luminosity Snow
1787954726 31.67° C 61% 1019.2 hPa 0 mm - 272 W/m² -
1787940196 28.89° C 58% 1022 hPa 0 mm - 609 W/m² -
1787939896 28.89° C 58% 1022 hPa 0 mm - 609 W/m² -
1787939590 28.89° C 58% 1022 hPa 0 mm - 609 W/m² -
1787939285 28.89° C 59% 1022 hPa 0 mm - 602 W/m² -
1787938980 28.89° C 61% 1022.1 hPa 0 mm - 610 W/m² -
1787938679 28.89° C 61% 1022 hPa 0 mm - 599 W/m² -
1787938376 28.89° C 62% 1022.2 hPa 0 mm - 595 W/m² -
1787938075 28.89° C 61% 1022.2 hPa 0 mm - 587 W/m² -
1787937771 28.89° C 60% 1022.1 hPa 0 mm - 580 W/m² -
1787937467 28.89° C 60% 1022.3 hPa 0 mm - 576 W/m² -
1787937163 28.89° C 60% 1022.2 hPa 0 mm - 567 W/m² -
1787936863 28.33° C 65% 1022.5 hPa 0 mm - 560 W/m² -
1787936557 27.78° C 63% 1022.4 hPa 0 mm - 553 W/m² -
1787936256 27.78° C 60% 1022.7 hPa 0 mm - 548 W/m² -
1787935953 27.78° C 63% 1022.7 hPa 0 mm - 516 W/m² -
1787935652 27.78° C 61% 1022.7 hPa 0 mm - 519 W/m² -
1787935351 27.78° C 59% 1022.5 hPa 0 mm - 524 W/m² -
1787935044 27.78° C 61% 1022.8 hPa 0 mm - 518 W/m² -
1787934740 27.78° C 60% 1022.9 hPa 0 mm - 505 W/m² -
1787934438 27.22° C 62% 1022.7 hPa 0 mm - 494 W/m² -
1787934133 27.22° C 61% 1022.7 hPa 0 mm - 486 W/m² -
1787933832 26.67° C 67% 1022.7 hPa 0 mm - 472 W/m² -
1787933527 26.67° C 63% 1022.6 hPa 0 mm - 460 W/m² -
1787933222 26.67° C 70% 1022.8 hPa 0 mm - 452 W/m² -

* Rain latest hour (hover to see other rain measurements)
** Current wind speed in m/s (hover to see current wind gust speed)